KGPM

Grand Prairie Municipal Airport

Grand Prairie, Texas, USA
METAR KGPM 280050Z 08007KT 10SM SKC 33/17 A2980
Observed Flight Rules
May-28 @ 00:50 UTC (39 minutes ago) Visual Flight Rules
Wind Visibility Clouds
80° at 7 knots 10 miles
  • Clear skies
Temperatures Readings
Current 33°C / 91°F
Dewpoint 17°C / 63°F
Humidity 38%
Altimeter 29.8" Hg
Pressure 1009 hPa
Elevation 180
METAR KGPM 280050Z 08007KT 10SM SKC 33/17 A2980
Observed Flight Rules
May-28 @ 00:50 UTC
(39 minutes ago)
VFR
Wind Visibility
80° at 7 knots 10 miles
Clouds
  • Clear skies
Temperature Dewpoint
33°C / 91°F 17°C / 63°F
Humidity Altimeter Pressure
38% 29.8" Hg 1009 hPa